^^
Station Historical Data
Daily Summary for January 15, 2017 Units:  Metric    English   Both
« Previous Day
Next Day »
Daily Weekly Monthly Yearly Custom
  High: Low: Average:
Temperature: -17.8 °C -21.7 °C -19.7 °C
Dew Point: -17.8 °C -22.2 °C -20.3 °C
Humidity: Humidity% 92% 93%
Wind Speed: 0km/h 0km/h 3.2km/h
Wind Gust: 0km/h - -
Wind- - NNW
Pressure: 0 hPa 33856.6 hPa -
Precipitation: 0 mm    
Historical Graphs
 
 
Tabular Data for January 15, 2017
Time Temperature Dew Point Pressure Wind Wind Speed Wind Gust Humidity Rainfall Rate (Hourly) solar Conditions
-17.8 °C -17.8 °C 0 hPa Calm     Humidity% 0 mm SoftwareType W/m2 Conditions
00:04 -18.2 °C -18.7 °C 33856.6 hPa Calm     93% 0 mm WeatherDisplay:10.37 W/m2 RA
00:09 -18.2 °C -18.7 °C 33866.8 hPa Calm     93% 0 mm WeatherDisplay:10.37 W/m2 RA
00:14 -18.2 °C -18.8 °C 33866.8 hPa Calm     92% 0 mm WeatherDisplay:10.37 W/m2 FEW
00:19 -18.2 °C -18.8 °C 33866.8 hPa Calm     92% 0 mm WeatherDisplay:10.37 W/m2 FEW
00:24 -18.2 °C -18.8 °C 33866.8 hPa Calm     92% 0 mm WeatherDisplay:10.37 W/m2 FEW
00:29 -18.2 °C -18.8 °C 33866.8 hPa Calm     92% 0 mm WeatherDisplay:10.37 W/m2 FEW
00:34 -18.2 °C -18.8 °C 33866.8 hPa Calm   6 km/h 92% 0 mm WeatherDisplay:10.37 W/m2 FEW
00:39 -18.2 °C -18.8 °C 33866.8 hPa NW 1.8 km/h   92% 0 mm WeatherDisplay:10.37 W/m2 FEW
00:44 -18.2 °C -18.8 °C 33866.8 hPa NW 1.8 km/h   92% 0 mm WeatherDisplay:10.37 W/m2 FEW
00:50 -18.2 °C -18.8 °C 33866.8 hPa Calm     93% 0 mm WeatherDisplay:10.37 W/m2 FEW
00:55 -18.2 °C -18.8 °C 33866.8 hPa Calm     93% 0 mm WeatherDisplay:10.37 W/m2 FEW
01:00 -18.2 °C -18.8 °C 33880.3 hPa Calm     93% 0 mm WeatherDisplay:10.37 W/m2 FEW
01:05 -18.3 °C -18.8 °C 33866.8 hPa NW 5.1 km/h 9 km/h 93% 0 mm WeatherDisplay:10.37 W/m2 FEW
01:10 -18.3 °C -18.8 °C 33866.8 hPa NW 0.3 km/h 5.1 km/h 93% 0 mm WeatherDisplay:10.37 W/m2 FEW
01:15 -18.3 °C -18.9 °C 33880.3 hPa NW 5.5 km/h 9 km/h 93% 0 mm WeatherDisplay:10.37 W/m2 FEW
01:20 -18.4 °C -18.9 °C 33880.3 hPa Calm   3.1 km/h 93% 0 mm WeatherDisplay:10.37 W/m2 FEW
01:25 -18.4 °C -18.9 °C 33880.3 hPa NW 1.8 km/h 6 km/h 93% 0 mm WeatherDisplay:10.37 W/m2 FEW
01:30 -18.4 °C -18.9 °C 33880.3 hPa NW 0.3 km/h 5.1 km/h 93% 0 mm WeatherDisplay:10.37 W/m2 FEW
01:35 -18.4 °C -19 °C 33880.3 hPa Calm   3.1 km/h 93% 0 mm WeatherDisplay:10.37 W/m2 FEW
01:40 -18.4 °C -19 °C 33880.3 hPa NW 2.3 km/h 6 km/h 93% 0 mm WeatherDisplay:10.37 W/m2 FEW
01:45 -18.5 °C -19.1 °C 33880.3 hPa Calm   3.1 km/h 93% 0 mm WeatherDisplay:10.37 W/m2 FEW
01:50 -18.6 °C -19.1 °C 33880.3 hPa Calm     93% 0 mm WeatherDisplay:10.37 W/m2 FEW
01:55 -18.6 °C -19.1 °C 33880.3 hPa Calm   6 km/h 93% 0 mm WeatherDisplay:10.37 W/m2 FEW
02:00 -18.6 °C -19.2 °C 33880.3 hPa NW 3.7 km/h 9 km/h 93% 0 mm WeatherDisplay:10.37 W/m2 FEW
02:05 -18.6 °C -19.2 °C 33890.5 hPa Calm     93% 0 mm WeatherDisplay:10.37 W/m2 FEW
02:10 -18.7 °C -19.2 °C 33890.5 hPa Calm     93% 0 mm WeatherDisplay:10.37 W/m2 FEW
02:15 -18.7 °C -19.2 °C 33880.3 hPa Calm     93% 0 mm WeatherDisplay:10.37 W/m2 FEW
02:20 -18.7 °C -19.2 °C 33880.3 hPa NW 0.3 km/h 9 km/h 93% 0 mm WeatherDisplay:10.37 W/m2 FEW
02:25 -18.7 °C -19.3 °C 33880.3 hPa NW 5.5 km/h 9 km/h 93% 0 mm WeatherDisplay:10.37 W/m2 FEW
02:30 -18.7 °C -19.3 °C 33880.3 hPa Calm     92% 0 mm WeatherDisplay:10.37 W/m2 FEW
02:35 -18.7 °C -19.3 °C 33880.3 hPa Calm     92% 0 mm WeatherDisplay:10.37 W/m2 FEW
02:40 -18.8 °C -19.3 °C 33890.5 hPa Calm     93% 0 mm WeatherDisplay:10.37 W/m2 FEW
02:45 -18.8 °C -19.4 °C 33890.5 hPa Calm     92% 0 mm WeatherDisplay:10.37 W/m2 FEW
02:50 -18.8 °C -19.4 °C 33890.5 hPa Calm     92% 0 mm WeatherDisplay:10.37 W/m2 FEW
02:55 -18.8 °C -19.4 °C 33890.5 hPa Calm     92% 0 mm WeatherDisplay:10.37 W/m2 FEW
03:00 -18.8 °C -19.4 °C 33890.5 hPa Calm     92% 0 mm WeatherDisplay:10.37 W/m2 FEW
03:05 -18.8 °C -19.5 °C 33890.5 hPa Calm     92% 0 mm WeatherDisplay:10.37 W/m2 FEW
03:10 -18.9 °C -19.5 °C 33900.6 hPa Calm     92% 0 mm WeatherDisplay:10.37 W/m2 FEW
03:15 -18.9 °C -19.6 °C 33900.6 hPa Calm     92% 0 mm WeatherDisplay:10.37 W/m2 FEW
03:20 -18.9 °C -19.6 °C 33900.6 hPa Calm     92% 0 mm WeatherDisplay:10.37 W/m2 FEW
03:25 -19 °C -19.6 °C 33890.5 hPa Calm     92% 0 mm WeatherDisplay:10.37 W/m2 FEW
03:30 -19 °C -19.6 °C 33900.6 hPa Calm     92% 0 mm WeatherDisplay:10.37 W/m2 FEW
03:35 -19 °C -19.6 °C 33900.6 hPa Calm     92% 0 mm WeatherDisplay:10.37 W/m2 FEW
03:40 -19.1 °C -19.7 °C 33900.6 hPa NW 0.5 km/h 5.1 km/h 92% 0 mm WeatherDisplay:10.37 W/m2 FEW
03:45 -19.1 °C -19.7 °C 33900.6 hPa Calm     92% 0 mm WeatherDisplay:10.37 W/m2 FEW
03:50 -19.1 °C -19.7 °C 33900.6 hPa Calm     92% 0 mm WeatherDisplay:10.37 W/m2 FEW
03:55 -19.2 °C -19.8 °C 33900.6 hPa NW 0.5 km/h 3.1 km/h 92% 0 mm WeatherDisplay:10.37 W/m2 FEW
04:00 -19.2 °C -19.8 °C 33900.6 hPa Calm     92% 0 mm WeatherDisplay:10.37 W/m2 FEW
04:05 -19.3 °C -19.9 °C 33900.6 hPa NW 1.6 km/h 7.7 km/h 92% 0 mm WeatherDisplay:10.37 W/m2 FEW
04:10 -19.3 °C -19.9 °C 33900.6 hPa Calm     92% 0 mm WeatherDisplay:10.37 W/m2 FEW
04:15 -19.3 °C -19.9 °C 33900.6 hPa Calm   3.1 km/h 92% 0 mm WeatherDisplay:10.37 W/m2 FEW
04:20 -19.3 °C -19.9 °C 33900.6 hPa Calm     92% 0 mm WeatherDisplay:10.37 W/m2 FEW
04:25 -19.3 °C -19.9 °C 33900.6 hPa Calm     92% 0 mm WeatherDisplay:10.37 W/m2 FEW
04:30 -19.4 °C -20 °C 33900.6 hPa Calm     92% 0 mm WeatherDisplay:10.37 W/m2 FEW
04:35 -19.4 °C -19.9 °C 33900.6 hPa Calm     93% 0 mm WeatherDisplay:10.37 W/m2 FEW
04:40 -19.4 °C -19.9 °C 33900.6 hPa Calm     93% 0 mm WeatherDisplay:10.37 W/m2 FEW
04:45 -19.4 °C -19.9 °C 33900.6 hPa Calm     93% 0 mm WeatherDisplay:10.37 W/m2 FEW
04:50 -19.4 °C -19.9 °C 33900.6 hPa Calm   3.1 km/h 93% 0 mm WeatherDisplay:10.37 W/m2 FEW
04:55 -19.4 °C -19.9 °C 33900.6 hPa NW 0.3 km/h 6 km/h 93% 0 mm WeatherDisplay:10.37 W/m2 FEW
05:00 -19.4 °C -20 °C 33900.6 hPa NW 6.4 km/h 9 km/h 93% 0 mm WeatherDisplay:10.37 W/m2 FEW
05:05 -19.4 °C -20 °C 33900.6 hPa NNW 9.3 km/h 9.3 km/h 93% 0 mm WeatherDisplay:10.37 W/m2 FEW
05:10 -19.5 °C -20 °C 33900.6 hPa Calm   6 km/h 93% 0 mm WeatherDisplay:10.37 W/m2 FEW
05:15 -19.5 °C -20 °C 33914.2 hPa NNW 8.9 km/h 9 km/h 93% 0 mm WeatherDisplay:10.37 W/m2 FEW
05:21 -19.5 °C -20.1 °C 33914.2 hPa Calm     93% 0 mm WeatherDisplay:10.37 W/m2 FEW
05:26 -19.5 °C -20 °C 33914.2 hPa Calm     93% 0 mm WeatherDisplay:10.37 W/m2 FEW
05:31 -19.5 °C -20 °C 33914.2 hPa NNW 3.7 km/h 9 km/h 93% 0 mm WeatherDisplay:10.37 W/m2 FEW
05:36 -19.5 °C -20 °C 33900.6 hPa Calm     93% 0 mm WeatherDisplay:10.37 W/m2 FEW
05:39 -19.5 °C -20 °C 33914.2 hPa NNW 0.5 km/h 6 km/h 93% 0 mm WeatherDisplay:10.37 W/m2 FEW
05:44 -19.4 °C -20 °C 33914.2 hPa NNW 2.1 km/h 9 km/h 93% 0 mm WeatherDisplay:10.37 W/m2 FEW
05:49 -19.4 °C -20 °C 33900.6 hPa Calm   6 km/h 93% 0 mm WeatherDisplay:10.37 W/m2 FEW
05:54 -19.4 °C -19.9 °C 33914.2 hPa Calm   6 km/h 93% 0 mm WeatherDisplay:10.37 W/m2 FEW
06:00 -19.4 °C -19.9 °C 33914.2 hPa Calm     93% 0 mm WeatherDisplay:10.37 W/m2 FEW
06:05 -19.4 °C -20 °C 33914.2 hPa Calm     93% 0 mm WeatherDisplay:10.37 W/m2 FEW
06:10 -19.4 °C -20 °C 33914.2 hPa NNW 1 km/h   93% 0 mm WeatherDisplay:10.37 W/m2 FEW
06:15 -19.4 °C -19.9 °C 33914.2 hPa NNW 0.8 km/h 7.7 km/h 93% 0 mm WeatherDisplay:10.37 W/m2 FEW
06:20 -19.4 °C -19.9 °C 33914.2 hPa NNW 3.7 km/h 5.1 km/h 93% 0 mm WeatherDisplay:10.37 W/m2 FEW
06:25 -19.4 °C -19.9 °C 33914.2 hPa NNW 6 km/h 9 km/h 93% 0 mm WeatherDisplay:10.37 W/m2 FEW
06:30 -19.4 °C -19.9 °C 33914.2 hPa Calm     93% 0 mm WeatherDisplay:10.37 W/m2 FEW
06:35 -19.4 °C -19.9 °C 33914.2 hPa Calm     93% 0 mm WeatherDisplay:10.37 W/m2 FEW
06:40 -19.3 °C -19.9 °C 33914.2 hPa Calm     93% 0 mm WeatherDisplay:10.37 W/m2 FEW
06:45 -19.3 °C -19.9 °C 33914.2 hPa NNW 1.8 km/h   93% 0 mm WeatherDisplay:10.37 W/m2 FEW
06:50 -19.3 °C -19.9 °C 33914.2 hPa NNW 3.1 km/h 3.1 km/h 93% 0 mm WeatherDisplay:10.37 W/m2 FEW
06:55 -19.3 °C -19.9 °C 33914.2 hPa Calm     93% 0 mm WeatherDisplay:10.37 W/m2 FEW
07:01 -19.3 °C -19.9 °C 33914.2 hPa Calm     93% 0 mm WeatherDisplay:10.37 W/m2 FEW
07:06 -19.3 °C -19.9 °C 33914.2 hPa Calm     93% 0 mm WeatherDisplay:10.37 W/m2 FEW
07:11 -19.3 °C -19.9 °C 33914.2 hPa Calm     93% 0 mm WeatherDisplay:10.37 W/m2 FEW
07:16 -19.3 °C -19.9 °C 33924.3 hPa NNW 8.5 km/h 10.3 km/h 93% 0 mm WeatherDisplay:10.37 W/m2 FEW
07:21 -19.4 °C -19.9 °C 33924.3 hPa NNW 5.6 km/h 9 km/h 93% 0 mm WeatherDisplay:10.37 W/m2 FEW
07:26 -19.4 °C -19.9 °C 33924.3 hPa NNW 8 km/h 11.9 km/h 93% 0 mm WeatherDisplay:10.37 W/m2 FEW
07:31 -19.4 °C -19.9 °C 33924.3 hPa Calm   6 km/h 93% 0 mm WeatherDisplay:10.37 W/m2 FEW
07:36 -19.4 °C -19.9 °C 33924.3 hPa NNW 5.5 km/h 9 km/h 93% 0 mm WeatherDisplay:10.37 W/m2 FEW
07:41 -19.4 °C -19.9 °C 33924.3 hPa NNW 6.4 km/h 9 km/h 93% 0 mm WeatherDisplay:10.37 W/m2 FEW
07:46 -19.4 °C -20 °C 33924.3 hPa NNW 5.1 km/h 9 km/h 93% 0 mm WeatherDisplay:10.37 W/m2 FEW
07:51 -19.4 °C -20 °C 33924.3 hPa NNW 5.1 km/h 9 km/h 93% 0 mm WeatherDisplay:10.37 W/m2 FEW
07:56 -19.5 °C -20 °C 33924.3 hPa NNW 5.6 km/h 9 km/h 93% 0 mm WeatherDisplay:10.37 W/m2 FEW
08:01 -19.5 °C -20 °C 33924.3 hPa Calm     93% 0 mm WeatherDisplay:10.37 W/m2 FEW
08:06 -19.5 °C -20 °C 33924.3 hPa Calm     93% 0 mm WeatherDisplay:10.37 W/m2 FEW
08:11 -19.4 °C -20 °C 33937.9 hPa Calm   5.1 km/h 93% 0 mm WeatherDisplay:10.37 W/m2 FEW
08:16 -19.4 °C -20 °C 33937.9 hPa Calm     93% 0 mm WeatherDisplay:10.37 W/m2 FEW
08:21 -19.4 °C -20 °C 33937.9 hPa NNW 1.8 km/h 6 km/h 93% 0 mm WeatherDisplay:10.37 W/m2 FEW
08:26 -19.4 °C -20 °C 33937.9 hPa NNW 4.7 km/h 6 km/h 93% 0 mm WeatherDisplay:10.37 W/m2 FEW
08:31 -19.4 °C -20 °C 33948 hPa NNW 2.9 km/h 6 km/h 93% 0 mm WeatherDisplay:10.37 W/m2 FEW
08:36 -19.4 °C -20 °C 33948 hPa NNW 8.5 km/h 12.9 km/h 93% 0 mm WeatherDisplay:10.37 W/m2 FEW
08:41 -19.4 °C -20 °C 33948 hPa NNW 5 km/h 9 km/h 93% 0 mm WeatherDisplay:10.37 W/m2 FEW
08:46 -19.5 °C -20 °C 33948 hPa NNW 6.3 km/h 11.9 km/h 93% 0 mm WeatherDisplay:10.37 W/m2 FEW
08:51 -19.4 °C -20 °C 33948 hPa Calm   5.1 km/h 93% 0 mm WeatherDisplay:10.37 W/m2 FEW
08:56 -19.4 °C -20 °C 33948 hPa NNW 3.7 km/h 9 km/h 93% 0 mm WeatherDisplay:10.37 W/m2 FEW
09:01 -19.4 °C -20 °C 33948 hPa NNW 6.3 km/h 9 km/h 93% 0 mm WeatherDisplay:10.37 W/m2 FEW
09:06 -19.4 °C -20 °C 33948 hPa Calm   3.1 km/h 93% 0 mm WeatherDisplay:10.37 W/m2 FEW
09:11 -19.4 °C -20 °C 33958.2 hPa Calm     93% 0 mm WeatherDisplay:10.37 W/m2 FEW
09:16 -19.4 °C -20 °C 33958.2 hPa NNW 0.8 km/h 6 km/h 93% 0 mm WeatherDisplay:10.37 W/m2 FEW
09:21 -19.4 °C -20 °C 33958.2 hPa NNW 3.1 km/h 6 km/h 93% 0 mm WeatherDisplay:10.37 W/m2 FEW
09:26 -19.4 °C -19.9 °C 33958.2 hPa NNW 0.5 km/h 5.1 km/h 93% 0 mm WeatherDisplay:10.37 W/m2 FEW
09:31 -19.4 °C -19.9 °C 33958.2 hPa Calm     93% 0 mm WeatherDisplay:10.37 W/m2 FEW
09:36 -19.4 °C -19.9 °C 33958.2 hPa NNW 1 km/h 7.7 km/h 93% 0 mm WeatherDisplay:10.37 W/m2 FEW
09:41 -19.4 °C -19.9 °C 33958.2 hPa NNW 3.7 km/h 9 km/h 93% 0 mm WeatherDisplay:10.37 W/m2 FEW
09:46 -19.4 °C -19.9 °C 33971.7 hPa NNW 7.6 km/h 9 km/h 93% 0 mm WeatherDisplay:10.37 W/m2 FEW
09:51 -19.3 °C -19.9 °C 33971.7 hPa Calm   9 km/h 93% 0 mm WeatherDisplay:10.37 W/m2 FEW
09:56 -19.3 °C -19.9 °C 33971.7 hPa NNW 5.5 km/h 9 km/h 93% 0 mm WeatherDisplay:10.37 W/m2 FEW
10:01 -19.3 °C -19.9 °C 33971.7 hPa NNW 3.7 km/h 6 km/h 93% 0 mm WeatherDisplay:10.37 W/m2 FEW
10:06 -19.3 °C -19.8 °C 33981.9 hPa NNW 5.5 km/h 11.9 km/h 93% 0 mm WeatherDisplay:10.37 W/m2 FEW
10:11 -19.3 °C -19.8 °C 33981.9 hPa NNW 2.9 km/h 7.7 km/h 93% 0 mm WeatherDisplay:10.37 W/m2 FEW
10:16 -19.3 °C -19.8 °C 33981.9 hPa NNW 4.2 km/h 10.3 km/h 93% 0 mm WeatherDisplay:10.37 W/m2 FEW
10:21 -19.3 °C -19.8 °C 33981.9 hPa NNW 9.3 km/h 15 km/h 93% 0 mm WeatherDisplay:10.37 W/m2 FEW
10:26 -19.2 °C -19.8 °C 33981.9 hPa NNW 1.6 km/h 6 km/h 93% 0 mm WeatherDisplay:10.37 W/m2 FEW
10:31 -19.2 °C -19.8 °C 33981.9 hPa NW 11.4 km/h 17.9 km/h 93% 0 mm WeatherDisplay:10.37 W/m2 FEW
10:36 -19.2 °C -19.8 °C 33981.9 hPa NNW 6.9 km/h 10.3 km/h 93% 0 mm WeatherDisplay:10.37 W/m2 FEW
10:41 -19.2 °C -19.8 °C 33981.9 hPa NNW 3.1 km/h 6 km/h 93% 0 mm WeatherDisplay:10.37 W/m2 FEW
10:46 -19.2 °C -19.8 °C 33981.9 hPa NNW 10.6 km/h 12.9 km/h 93% 0 mm WeatherDisplay:10.37 W/m2 FEW
10:51 -19.2 °C -19.7 °C 33981.9 hPa NNW 3.1 km/h 9 km/h 93% 0 mm WeatherDisplay:10.37 W/m2 FEW
10:56 -19.2 °C -19.7 °C 33992.1 hPa Calm     93% 0 mm WeatherDisplay:10.37 W/m2 FEW
11:01 -19.1 °C -19.7 °C 33992.1 hPa NW 6.8 km/h 15 km/h 93% 0 mm WeatherDisplay:10.37 W/m2 FEW
11:06 -19.1 °C -19.7 °C 33992.1 hPa NW 1.3 km/h 9 km/h 93% 0 mm WeatherDisplay:10.37 W/m2 FEW
11:11 -19.1 °C -19.7 °C 33992.1 hPa NW 7.6 km/h 20.9 km/h 93% 0 mm WeatherDisplay:10.37 W/m2 FEW
11:16 -19.1 °C -19.7 °C 33992.1 hPa NW 4.2 km/h 9 km/h 93% 0 mm WeatherDisplay:10.37 W/m2 FEW
11:21 -19.1 °C -19.7 °C 33992.1 hPa NW 2.3 km/h 9 km/h 93% 0 mm WeatherDisplay:10.37 W/m2 FEW
11:26 -19.1 °C -19.6 °C 34005.6 hPa NNW 7.7 km/h 15 km/h 93% 0 mm WeatherDisplay:10.37 W/m2 FEW
11:31 -19.1 °C -19.6 °C 34005.6 hPa NW 8.2 km/h 11.9 km/h 93% 0 mm WeatherDisplay:10.37 W/m2 FEW
11:36 -19.1 °C -19.6 °C 34005.6 hPa NNW 6.4 km/h 9 km/h 93% 0 mm WeatherDisplay:10.37 W/m2 FEW
11:41 -19.1 °C -19.6 °C 34005.6 hPa NNW 6.8 km/h 20.9 km/h 93% 0 mm WeatherDisplay:10.37 W/m2 FEW
11:46 -19.1 °C -19.6 °C 34005.6 hPa North 7.7 km/h 9 km/h 93% 0 mm WeatherDisplay:10.37 W/m2 FEW
11:51 -19.1 °C -19.6 °C 34005.6 hPa WNW 1.8 km/h 5.1 km/h 93% 0 mm WeatherDisplay:10.37 W/m2 FEW
11:56 -19.1 °C -19.6 °C 34005.6 hPa WNW 11.4 km/h 15 km/h 93% 0 mm WeatherDisplay:10.37 W/m2 FEW
12:01 -19.1 °C -19.6 °C 34005.6 hPa NNW 4.2 km/h 11.9 km/h 93% 0 mm WeatherDisplay:10.37 W/m2 FEW
12:06 -19.1 °C -19.6 °C 34005.6 hPa NW 11.6 km/h 20.9 km/h 93% 0 mm WeatherDisplay:10.37 W/m2 FEW
12:11 -19.1 °C -19.7 °C 34005.6 hPa NW 11.9 km/h 23.8 km/h 93% 0 mm WeatherDisplay:10.37 W/m2 FEW
12:16 -19.1 °C -19.7 °C 34005.6 hPa NW 15.8 km/h 26.9 km/h 93% 0 mm WeatherDisplay:10.37 W/m2 FEW
12:21 -19.1 °C -19.7 °C 34005.6 hPa North 9 km/h 20.9 km/h 93% 0 mm WeatherDisplay:10.37 W/m2 FEW
12:26 -19.1 °C -19.7 °C 34015.8 hPa NNW 7.6 km/h 11.9 km/h 93% 0 mm WeatherDisplay:10.37 W/m2 FEW
12:31 -19.1 °C -19.7 °C 34015.8 hPa NNW 9.7 km/h 15 km/h 93% 0 mm WeatherDisplay:10.37 W/m2 FEW
12:36 -19.1 °C -19.7 °C 34015.8 hPa NNW 2.9 km/h 9 km/h 93% 0 mm WeatherDisplay:10.37 W/m2 FEW
12:41 -19.1 °C -19.7 °C 34015.8 hPa NW 10.3 km/h 15 km/h 93% 0 mm WeatherDisplay:10.37 W/m2 FEW
12:46 -19.1 °C -19.7 °C 34015.8 hPa NNW 1 km/h 9 km/h 93% 0 mm WeatherDisplay:10.37 W/m2 FEW
12:51 -19.2 °C -19.7 °C 34015.8 hPa NW 6.4 km/h 17.9 km/h 93% 0 mm WeatherDisplay:10.37 W/m2 FEW
12:56 -19.2 °C -19.7 °C 34015.8 hPa NNW 4.7 km/h 9 km/h 93% 0 mm WeatherDisplay:10.37 W/m2 FEW
13:02 -19.2 °C -19.8 °C 34029.3 hPa NNW 1.6 km/h 6 km/h 93% 0 mm WeatherDisplay:10.37 W/m2 FEW
13:07 -19.2 °C -19.8 °C 34029.3 hPa NNW 6.8 km/h 9 km/h 93% 0 mm WeatherDisplay:10.37 W/m2 FEW
13:12 -19.2 °C -19.8 °C 34029.3 hPa North 9 km/h 15 km/h 93% 0 mm WeatherDisplay:10.37 W/m2 FEW
13:17 -19.3 °C -19.8 °C 34039.5 hPa NNW 5 km/h 11.9 km/h 93% 0 mm WeatherDisplay:10.37 W/m2 FEW
13:22 -19.2 °C -19.8 °C 34039.5 hPa NNW 0.8 km/h 10.3 km/h 93% 0 mm WeatherDisplay:10.37 W/m2 FEW
13:27 -19.3 °C -19.8 °C 34039.5 hPa NNW 11.6 km/h 15 km/h 93% 0 mm WeatherDisplay:10.37 W/m2 FEW
13:32 -19.3 °C -19.8 °C 34039.5 hPa NW 1.6 km/h 9 km/h 93% 0 mm WeatherDisplay:10.37 W/m2 FEW
13:37 -19.3 °C -19.8 °C 34039.5 hPa NNW 7.2 km/h 11.9 km/h 93% 0 mm WeatherDisplay:10.37 W/m2 FEW
13:42 -19.3 °C -19.9 °C 34049.6 hPa NW 1 km/h 15 km/h 92% 0 mm WeatherDisplay:10.37 W/m2 FEW
13:47 -19.3 °C -19.9 °C 34039.5 hPa Calm     92% 0 mm WeatherDisplay:10.37 W/m2 FEW
13:52 -19.3 °C -19.9 °C 34049.6 hPa NNW 0.3 km/h 7.7 km/h 93% 0 mm WeatherDisplay:10.37 W/m2 FEW
13:57 -19.3 °C -19.9 °C 34049.6 hPa NW 4.2 km/h 15 km/h 93% 0 mm WeatherDisplay:10.37 W/m2 FEW
14:02 -19.4 °C -19.9 °C 34049.6 hPa NW 1.3 km/h 3.1 km/h 93% 0 mm WeatherDisplay:10.37 W/m2 FEW
14:07 -19.4 °C -19.9 °C 34049.6 hPa Calm   6 km/h 93% 0 mm WeatherDisplay:10.37 W/m2 FEW
14:12 -19.4 °C -20.1 °C 34049.6 hPa West 5.5 km/h 9 km/h 92% 0 mm WeatherDisplay:10.37 W/m2 FEW
14:17 -19.5 °C -20.1 °C 34049.6 hPa NW 9 km/h 15 km/h 92% 0 mm WeatherDisplay:10.37 W/m2 FEW
14:22 -19.5 °C -20.1 °C 34049.6 hPa NW 6.3 km/h 10.3 km/h 92% 0 mm WeatherDisplay:10.37 W/m2 FEW
14:27 -19.6 °C -20.1 °C 34063.2 hPa NNW 11.9 km/h 15 km/h 93% 0 mm WeatherDisplay:10.37 W/m2 FEW
14:32 -19.6 °C -20.1 °C 34063.2 hPa NNW 14.5 km/h 23.8 km/h 93% 0 mm WeatherDisplay:10.37 W/m2 FEW
14:37 -19.6 °C -20.1 °C 34073.3 hPa NNW 5.6 km/h 9 km/h 93% 0 mm WeatherDisplay:10.37 W/m2 FEW
14:42 -19.6 °C -20.1 °C 34073.3 hPa West 1.3 km/h 9 km/h 93% 0 mm WeatherDisplay:10.37 W/m2 FEW
14:47 -19.6 °C -20.1 °C 34073.3 hPa NW 16.9 km/h 26.9 km/h 93% 0 mm WeatherDisplay:10.37 W/m2 FEW
14:52 -19.6 °C -20.2 °C 34073.3 hPa NNW 1 km/h 15 km/h 92% 0 mm WeatherDisplay:10.37 W/m2 FEW
14:57 -19.6 °C -20.2 °C 34073.3 hPa WNW 4.3 km/h 9 km/h 92% 0 mm WeatherDisplay:10.37 W/m2 FEW
15:02 -19.6 °C -20.2 °C 34086.9 hPa North 8.2 km/h 15 km/h 92% 0 mm WeatherDisplay:10.37 W/m2 FEW
15:07 -19.6 °C -20.2 °C 34086.9 hPa NNW 3.7 km/h 9 km/h 92% 0 mm WeatherDisplay:10.37 W/m2 FEW
15:12 -19.6 °C -20.2 °C 34086.9 hPa NNW 5.1 km/h 9 km/h 92% 0 mm WeatherDisplay:10.37 W/m2 FEW
15:17 -19.6 °C -20.2 °C 34086.9 hPa Calm   6 km/h 92% 0 mm WeatherDisplay:10.37 W/m2 FEW
15:22 -19.7 °C -20.3 °C 34086.9 hPa NNW 3.4 km/h 9 km/h 92% 0 mm WeatherDisplay:10.37 W/m2 FEW
15:27 -19.7 °C -20.3 °C 34086.9 hPa NW 3.4 km/h 20.9 km/h 92% 0 mm WeatherDisplay:10.37 W/m2 FEW
15:32 -19.7 °C -20.3 °C 34097 hPa North 2.3 km/h 11.9 km/h 92% 0 mm WeatherDisplay:10.37 W/m2 FEW
15:37 -19.7 °C -20.2 °C 34097 hPa Calm   6 km/h 93% 0 mm WeatherDisplay:10.37 W/m2 FEW
15:42 -19.8 °C -20.3 °C 34097 hPa NW 5 km/h 9 km/h 93% 0 mm WeatherDisplay:10.37 W/m2 FEW
15:47 -19.8 °C -20.3 °C 34097 hPa NNW 11.1 km/h 15 km/h 93% 0 mm WeatherDisplay:10.37 W/m2 FEW
15:52 -19.8 °C -20.4 °C 34097 hPa NNW 6.3 km/h 11.9 km/h 92% 0 mm WeatherDisplay:10.37 W/m2 FEW
15:57 -19.9 °C -20.4 °C 34097 hPa NW 2.9 km/h 9 km/h 93% 0 mm WeatherDisplay:10.37 W/m2 FEW
16:02 -19.9 °C -20.4 °C 34107.2 hPa WNW 6.8 km/h 11.9 km/h 93% 0 mm WeatherDisplay:10.37 W/m2 FEW
16:07 -19.9 °C -20.4 °C 34107.2 hPa NW 6.9 km/h 10.3 km/h 93% 0 mm WeatherDisplay:10.37 W/m2 FEW
16:12 -20 °C -20.5 °C 34107.2 hPa NNW 8.5 km/h 12.9 km/h 93% 0 mm WeatherDisplay:10.37 W/m2 FEW
16:17 -20.1 °C -20.6 °C 34107.2 hPa NNW 6.8 km/h 11.9 km/h 93% 0 mm WeatherDisplay:10.37 W/m2 FEW
16:22 -20.1 °C -20.6 °C 34107.2 hPa NW 8.5 km/h 26.9 km/h 93% 0 mm WeatherDisplay:10.37 W/m2 FEW
16:27 -20.1 °C -20.6 °C 34120.7 hPa NNW 5 km/h 9 km/h 93% 0 mm WeatherDisplay:10.37 W/m2 FEW
16:32 -20.1 °C -20.7 °C 34120.7 hPa NNW 6 km/h 9 km/h 93% 0 mm WeatherDisplay:10.37 W/m2 FEW
16:37 -20.1 °C -20.6 °C 34120.7 hPa Calm   6 km/h 93% 0 mm WeatherDisplay:10.37 W/m2 FEW
16:42 -20.1 °C -20.6 °C 34120.7 hPa WNW 9.7 km/h 15 km/h 93% 0 mm WeatherDisplay:10.37 W/m2 FEW
16:47 -20.1 °C -20.7 °C 34130.9 hPa NNW 9.7 km/h 15 km/h 93% 0 mm WeatherDisplay:10.37 W/m2 FEW
16:52 -20.2 °C -20.7 °C 34130.9 hPa NNW 6.8 km/h 10.3 km/h 93% 0 mm WeatherDisplay:10.37 W/m2 FEW
16:57 -20.2 °C -20.7 °C 34130.9 hPa NNW 1 km/h 6 km/h 93% 0 mm WeatherDisplay:10.37 W/m2 FEW
17:02 -20.2 °C -20.7 °C 34130.9 hPa NNW 1 km/h 9 km/h 93% 0 mm WeatherDisplay:10.37 W/m2 FEW
17:07 -20.2 °C -20.7 °C 34130.9 hPa NNW 5.6 km/h 9 km/h 93% 0 mm WeatherDisplay:10.37 W/m2 FEW
17:12 -20.2 °C -20.7 °C 34130.9 hPa West 6 km/h 11.9 km/h 93% 0 mm WeatherDisplay:10.37 W/m2 FEW
17:17 -20.2 °C -20.7 °C 34130.9 hPa North 8.5 km/h 11.9 km/h 93% 0 mm WeatherDisplay:10.37 W/m2 FEW
17:22 -20.2 °C -20.8 °C 34144.4 hPa Calm     93% 0 mm WeatherDisplay:10.37 W/m2 FEW
17:27 -20.2 °C -20.8 °C 34144.4 hPa West 1.6 km/h 9 km/h 93% 0 mm WeatherDisplay:10.37 W/m2 FEW
17:32 -20.3 °C -20.8 °C 34144.4 hPa NNW 4.2 km/h 9 km/h 93% 0 mm WeatherDisplay:10.37 W/m2 FEW
17:37 -20.3 °C -20.8 °C 34144.4 hPa NNW 6.8 km/h 12.9 km/h 93% 0 mm WeatherDisplay:10.37 W/m2 FEW
17:42 -20.3 °C -20.9 °C 34144.4 hPa NW 1.6 km/h 9 km/h 93% 0 mm WeatherDisplay:10.37 W/m2 FEW
17:47 -20.4 °C -20.9 °C 34144.4 hPa NW 9 km/h 20.9 km/h 93% 0 mm WeatherDisplay:10.37 W/m2 FEW
17:52 -20.4 °C -20.9 °C 34154.6 hPa Calm     93% 0 mm WeatherDisplay:10.37 W/m2 FEW
17:57 -20.4 °C -20.9 °C 34154.6 hPa NNW 2.9 km/h 6 km/h 93% 0 mm WeatherDisplay:10.37 W/m2 FEW
18:02 -20.4 °C -20.9 °C 34154.6 hPa WSW 4.2 km/h 9 km/h 93% 0 mm WeatherDisplay:10.37 W/m2 FEW
18:07 -20.4 °C -20.9 °C 34164.7 hPa NNW 4.2 km/h 9 km/h 93% 0 mm WeatherDisplay:10.37 W/m2 FEW
18:12 -20.5 °C -21.1 °C 34164.7 hPa NNW 11.9 km/h 23.8 km/h 93% 0 mm WeatherDisplay:10.37 W/m2 FEW
18:17 -20.6 °C -21.1 °C 34164.7 hPa NW 2.1 km/h 9 km/h 93% 0 mm WeatherDisplay:10.37 W/m2 FEW
18:22 -20.7 °C -21.2 °C 34164.7 hPa NNW 6.4 km/h 9 km/h 93% 0 mm WeatherDisplay:10.37 W/m2 FEW
18:27 -20.7 °C -21.2 °C 34164.7 hPa NNW 5.5 km/h 11.9 km/h 93% 0 mm WeatherDisplay:10.37 W/m2 FEW
18:32 -20.7 °C -21.2 °C 34164.7 hPa NNW 3.7 km/h 9 km/h 93% 0 mm WeatherDisplay:10.37 W/m2 FEW
18:37 -20.7 °C -21.2 °C 34178.3 hPa Calm     93% 0 mm WeatherDisplay:10.37 W/m2 FEW
18:42 -20.7 °C -21.2 °C 34178.3 hPa Calm     93% 0 mm WeatherDisplay:10.37 W/m2 FEW
18:43 -20.7 °C -21.2 °C 34178.3 hPa NNW 1.6 km/h 6 km/h 93% 0 mm WeatherDisplay:10.37 W/m2 FEW
18:48 -20.6 °C -21.2 °C 34178.3 hPa NNW 1.8 km/h 6 km/h 93% 0 mm WeatherDisplay:10.37 W/m2 FEW
18:53 -20.6 °C -21.2 °C 34178.3 hPa Calm     93% 0 mm WeatherDisplay:10.37 W/m2 FEW
18:58 -20.6 °C -21.2 °C 34178.3 hPa Calm     93% 0 mm WeatherDisplay:10.37 W/m2 FEW
19:03 -20.6 °C -21.1 °C 34178.3 hPa Calm     93% 0 mm WeatherDisplay:10.37 W/m2 FEW
19:08 -20.6 °C -21.1 °C 34178.3 hPa NW 9 km/h 15 km/h 93% 0 mm WeatherDisplay:10.37 W/m2 FEW
19:13 -20.6 °C -21.2 °C 34188.4 hPa NNW 3.7 km/h 9 km/h 93% 0 mm WeatherDisplay:10.37 W/m2 FEW
19:23 -20.7 °C -21.2 °C 34188.4 hPa NNW 6.8 km/h 11.9 km/h 93% 0 mm WeatherDisplay:10.37 W/m2 FEW
19:28 -20.7 °C -21.2 °C 34188.4 hPa NNW 4.7 km/h 9 km/h 93% 0 mm WeatherDisplay:10.37 W/m2 FEW
19:33 -20.7 °C -21.2 °C 34198.6 hPa NNW 1 km/h 5.1 km/h 93% 0 mm WeatherDisplay:10.37 W/m2 FEW
19:38 -20.7 °C -21.2 °C 34198.6 hPa NNW 4.3 km/h 9 km/h 93% 0 mm WeatherDisplay:10.37 W/m2 FEW
19:43 -20.7 °C -21.2 °C 34198.6 hPa WNW 6.9 km/h 15 km/h 93% 0 mm WeatherDisplay:10.37 W/m2 FEW
19:48 -20.8 °C -21.3 °C 34198.6 hPa NNW 2.1 km/h 9 km/h 93% 0 mm WeatherDisplay:10.37 W/m2 FEW
19:53 -20.9 °C -21.4 °C 34198.6 hPa Calm     93% 0 mm WeatherDisplay:10.37 W/m2 FEW
19:58 -20.9 °C -21.4 °C 34198.6 hPa NNW 7.2 km/h 9 km/h 93% 0 mm WeatherDisplay:10.37 W/m2 FEW
20:03 -20.9 °C -21.4 °C 34212.1 hPa NNW 7.6 km/h 11.9 km/h 93% 0 mm WeatherDisplay:10.37 W/m2 FEW
20:08 -21 °C -21.5 °C 34212.1 hPa NNW 0.5 km/h 11.9 km/h 93% 0 mm WeatherDisplay:10.37 W/m2 FEW
20:13 -21.1 °C -21.6 °C 34212.1 hPa NNW 4.3 km/h 11.9 km/h 93% 0 mm WeatherDisplay:10.37 W/m2 FEW
20:18 -21.2 °C -21.7 °C 34212.1 hPa NW 6.4 km/h 9 km/h 93% 0 mm WeatherDisplay:10.37 W/m2 FEW
20:23 -21.2 °C -21.8 °C 34212.1 hPa NW 3.9 km/h 9 km/h 92% 0 mm WeatherDisplay:10.37 W/m2 FEW
20:28 -21.2 °C -21.8 °C 34212.1 hPa NNW 2.9 km/h 11.9 km/h 93% 0 mm WeatherDisplay:10.37 W/m2 FEW
20:33 -21.3 °C -21.8 °C 34212.1 hPa NNW 2.3 km/h 9 km/h 93% 0 mm WeatherDisplay:10.37 W/m2 FEW
20:38 -21.3 °C -21.8 °C 34222.3 hPa Calm   3.1 km/h 93% 0 mm WeatherDisplay:10.37 W/m2 FEW
20:43 -21.3 °C -21.9 °C 34222.3 hPa NNW 8.2 km/h 11.9 km/h 93% 0 mm WeatherDisplay:10.37 W/m2 FEW
20:48 -21.4 °C -21.9 °C 34222.3 hPa NNW 6 km/h 9 km/h 93% 0 mm WeatherDisplay:10.37 W/m2 FEW
20:53 -21.4 °C -21.9 °C 34222.3 hPa NNW 6 km/h 9 km/h 93% 0 mm WeatherDisplay:10.37 W/m2 FEW
20:58 -21.3 °C -21.9 °C 34235.8 hPa WSW 0.3 km/h 2.6 km/h 93% 0 mm WeatherDisplay:10.37 W/m2 FEW
21:03 -21.3 °C -21.9 °C 34235.8 hPa WNW 1.6 km/h 9 km/h 93% 0 mm WeatherDisplay:10.37 W/m2 FEW
21:08 -21.4 °C -21.9 °C 34235.8 hPa NNW 1 km/h 6 km/h 93% 0 mm WeatherDisplay:10.37 W/m2 FEW
21:13 -21.4 °C -21.9 °C 34235.8 hPa Calm     93% 0 mm WeatherDisplay:10.37 W/m2 FEW
21:18 -21.4 °C -21.9 °C 34235.8 hPa NW 2.3 km/h 9 km/h 93% 0 mm WeatherDisplay:10.37 W/m2 FEW
21:23 -21.4 °C -21.9 °C 34246 hPa NW 0.3 km/h 6 km/h 93% 0 mm WeatherDisplay:10.37 W/m2 FEW
21:28 -21.4 °C -21.9 °C 34246 hPa Calm     93% 0 mm WeatherDisplay:10.37 W/m2 FEW
21:33 -21.4 °C -21.9 °C 34246 hPa Calm     93% 0 mm WeatherDisplay:10.37 W/m2 FEW
21:38 -21.4 °C -21.9 °C 34246 hPa Calm     93% 0 mm WeatherDisplay:10.37 W/m2 FEW
21:43 -21.3 °C -21.9 °C 34246 hPa NW 2.9 km/h 6 km/h 93% 0 mm WeatherDisplay:10.37 W/m2 FEW
21:48 -21.3 °C -21.9 °C 34256.2 hPa NW 4.3 km/h 9 km/h 93% 0 mm WeatherDisplay:10.37 W/m2 FEW
21:53 -21.3 °C -21.9 °C 34256.2 hPa NNW 4.3 km/h 9 km/h 93% 0 mm WeatherDisplay:10.37 W/m2 FEW
21:58 -21.4 °C -21.9 °C 34256.2 hPa NNW 2.6 km/h 9 km/h 93% 0 mm WeatherDisplay:10.37 W/m2 FEW
22:03 -21.4 °C -21.9 °C 34269.7 hPa Calm     93% 0 mm WeatherDisplay:10.37 W/m2 FEW
22:08 -21.4 °C -21.9 °C 34269.7 hPa Calm     93% 0 mm WeatherDisplay:10.37 W/m2 FEW
22:13 -21.3 °C -21.9 °C 34269.7 hPa Calm     93% 0 mm WeatherDisplay:10.37 W/m2 FEW
22:18 -21.3 °C -21.9 °C 34269.7 hPa NNW 3.7 km/h 9 km/h 93% 0 mm WeatherDisplay:10.37 W/m2 FEW
22:23 -21.4 °C -22 °C 34279.9 hPa NW 0.3 km/h 9 km/h 93% 0 mm WeatherDisplay:10.37 W/m2 FEW
22:28 -21.5 °C -22.1 °C 34279.9 hPa NW 6.9 km/h 11.9 km/h 92% 0 mm WeatherDisplay:10.37 W/m2 FEW
22:33 -21.6 °C -22.2 °C 34279.9 hPa NW 6.9 km/h 9 km/h 92% 0 mm WeatherDisplay:10.37 W/m2 FEW
22:38 -21.6 °C -22.1 °C 34279.9 hPa NNW 5.5 km/h 9 km/h 93% 0 mm WeatherDisplay:10.37 W/m2 FEW
22:43 -21.6 °C -22.2 °C 34279.9 hPa NNW 4.2 km/h 11.9 km/h 93% 0 mm WeatherDisplay:10.37 W/m2 FEW
22:48 -21.7 °C -22.2 °C 34279.9 hPa Calm     93% 0 mm WeatherDisplay:10.37 W/m2 FEW
22:53 -21.6 °C -22.2 °C 34279.9 hPa NNW 5.5 km/h 9 km/h 93% 0 mm WeatherDisplay:10.37 W/m2 FEW
22:58 -21.6 °C -22.2 °C 34279.9 hPa NNW 6.3 km/h 9 km/h 93% 0 mm WeatherDisplay:10.37 W/m2 FEW
23:03 -21.6 °C -22.2 °C 34293.4 hPa NNW 2.9 km/h 9 km/h 93% 0 mm WeatherDisplay:10.37 W/m2 FEW
23:08 -21.6 °C -22.1 °C 34293.4 hPa NNW 1.3 km/h 5.1 km/h 93% 0 mm WeatherDisplay:10.37 W/m2 FEW
23:13 -21.6 °C -22.1 °C 34293.4 hPa Calm     93% 0 mm WeatherDisplay:10.37 W/m2 FEW
23:18 -21.6 °C -22.1 °C 34293.4 hPa Calm   3.1 km/h 93% 0 mm WeatherDisplay:10.37 W/m2 FEW
23:23 -21.6 °C -22.1 °C 34303.6 hPa Calm     93% 0 mm WeatherDisplay:10.37 W/m2 FEW
23:28 -21.6 °C -22.1 °C 34303.6 hPa Calm     93% 0 mm WeatherDisplay:10.37 W/m2 FEW
23:33 -21.5 °C -22.1 °C 34303.6 hPa NNW 4.7 km/h 9 km/h 93% 0 mm WeatherDisplay:10.37 W/m2 FEW
23:38 -21.5 °C -22 °C 34303.6 hPa Calm     93% 0 mm WeatherDisplay:10.37 W/m2 FEW
23:43 -21.5 °C -22 °C 34303.6 hPa Calm     93% 0 mm WeatherDisplay:10.37 W/m2 FEW
23:48 -21.4 °C -22 °C 34303.6 hPa Calm     93% 0 mm WeatherDisplay:10.37 W/m2 FEW
23:53 -21.4 °C -22 °C 34313.7 hPa Calm     93% 0 mm WeatherDisplay:10.37 W/m2 FEW
23:58 -21.4 °C -21.9 °C 34313.7 hPa Calm     93% 0 mm WeatherDisplay:10.37 W/m2 FEW
Tuulensuunkaari, Veikkola, Suomi
Compliments of Weather Underground - 2.75 mb